createdAt,value
2022-10-09T00:00:00.678Z,71.60
2022-10-09T00:03:02.585Z,70.90
2022-10-09T00:06:04.962Z,71.10
2022-10-09T00:09:06.773Z,70.60
2022-10-09T00:12:08.611Z,70.20
2022-10-09T00:15:11.038Z,71.00
2022-10-09T00:18:13.888Z,71.20
2022-10-09T00:21:28.770Z,71.60
2022-10-09T00:24:30.614Z,72.90
2022-10-09T00:27:32.498Z,72.20
2022-10-09T00:30:34.408Z,72.90
2022-10-09T00:33:36.421Z,74.20
2022-10-09T00:36:38.242Z,75.10
2022-10-09T00:39:40.068Z,74.80
2022-10-09T00:42:41.929Z,77.30
2022-10-09T00:45:48.392Z,79.10
2022-10-09T00:49:02.390Z,79.60
2022-10-09T00:52:04.891Z,78.90
2022-10-09T00:55:08.273Z,80.50
2022-10-09T00:58:10.552Z,82.30
2022-10-09T01:01:12.412Z,81.90
2022-10-09T01:04:14.299Z,84.20
2022-10-09T01:07:19.017Z,85.00
2022-10-09T01:10:55.457Z,84.30
2022-10-09T01:14:29.023Z,86.50
2022-10-09T01:17:44.128Z,84.30
2022-10-09T01:21:01.327Z,83.30
2022-10-09T01:24:31.092Z,84.20
2022-10-09T01:27:33.262Z,83.30
2022-10-09T01:30:35.355Z,83.20
2022-10-09T01:33:37.272Z,84.10
2022-10-09T01:36:39.387Z,85.30
2022-10-09T01:39:42.972Z,86.70
2022-10-09T01:42:47.234Z,88.10
2022-10-09T01:45:49.383Z,85.50
2022-10-09T01:49:32.785Z,84.50
2022-10-09T01:52:41.533Z,85.60
2022-10-09T01:55:51.325Z,89.50
2022-10-09T01:58:58.164Z,86.20
2022-10-09T02:02:00.174Z,84.40
2022-10-09T02:05:02.136Z,84.80
2022-10-09T02:08:03.945Z,84.60
2022-10-09T02:11:06.027Z,84.40
2022-10-09T02:14:07.848Z,85.10
2022-10-09T02:17:16.155Z,85.10
2022-10-09T02:20:27.538Z,85.90
2022-10-09T02:23:29.372Z,88.00
2022-10-09T02:26:31.201Z,87.80
2022-10-09T02:29:33.039Z,86.80
2022-10-09T02:32:34.972Z,85.60
2022-10-09T02:35:36.855Z,86.80
2022-10-09T02:38:38.701Z,87.60
2022-10-09T02:41:40.519Z,89.30
2022-10-09T02:44:42.592Z,88.50
2022-10-09T02:47:44.423Z,90.30
2022-10-09T02:50:46.244Z,92.00
2022-10-09T02:53:48.075Z,91.60
2022-10-09T02:56:49.913Z,94.20
2022-10-09T02:59:51.760Z,94.30
2022-10-09T03:02:54.001Z,94.20
2022-10-09T03:06:05.964Z,95.20
2022-10-09T03:09:07.785Z,95.90
2022-10-09T03:12:09.647Z,95.90
2022-10-09T03:15:12.230Z,95.20
2022-10-09T03:18:14.045Z,95.40
2022-10-09T03:21:20.870Z,95.30
2022-10-09T03:24:22.674Z,96.60
2022-10-09T03:27:24.515Z,96.00
2022-10-09T03:30:26.740Z,97.50
2022-10-09T03:33:28.642Z,97.50
2022-10-09T03:36:30.462Z,97.50
2022-10-09T03:39:32.334Z,97.80
2022-10-09T03:42:34.129Z,99.90
2022-10-09T03:45:39.256Z,99.20
2022-10-09T03:48:41.119Z,99.90
2022-10-09T03:51:42.964Z,99.90
2022-10-09T03:54:44.836Z,99.90
2022-10-09T03:57:46.637Z,99.90
2022-10-09T04:00:50.755Z,99.90
2022-10-09T04:03:52.651Z,99.90
2022-10-09T04:06:54.477Z,99.90
2022-10-09T04:09:56.340Z,99.90
2022-10-09T04:12:58.267Z,99.90
2022-10-09T04:16:00.219Z,99.90
2022-10-09T04:19:02.381Z,99.90
2022-10-09T04:22:04.177Z,99.50
2022-10-09T04:25:06.204Z,99.80
2022-10-09T04:28:08.145Z,99.90
2022-10-09T04:31:10.102Z,99.20
2022-10-09T04:34:12.000Z,99.50
2022-10-09T04:37:13.806Z,99.60
2022-10-09T04:40:15.716Z,99.20
2022-10-09T04:43:17.524Z,99.60
2022-10-09T04:46:19.340Z,98.20
2022-10-09T04:49:21.217Z,99.90
2022-10-09T04:52:23.043Z,99.70
2022-10-09T04:55:24.932Z,99.30
2022-10-09T04:58:26.763Z,99.00
2022-10-09T05:01:29.259Z,99.90
2022-10-09T05:04:32.908Z,99.90
2022-10-09T05:07:34.711Z,98.60
2022-10-09T05:10:36.623Z,99.60
2022-10-09T05:13:39.752Z,99.00
2022-10-09T05:17:08.451Z,98.50
2022-10-09T05:20:03.466Z,98.00
2022-10-09T05:23:05.249Z,99.70
2022-10-09T05:26:08.584Z,99.90
2022-10-09T05:29:10.457Z,99.40
2022-10-09T05:32:12.330Z,98.90
2022-10-09T05:35:14.305Z,97.90
2022-10-09T05:38:16.164Z,97.70
2022-10-09T05:41:18.265Z,97.70
2022-10-09T05:44:20.131Z,97.50
2022-10-09T05:47:21.989Z,97.10
2022-10-09T05:50:23.800Z,96.40
2022-10-09T05:53:25.623Z,97.40
2022-10-09T05:56:34.845Z,97.90
2022-10-09T05:59:36.754Z,97.00
2022-10-09T06:02:38.661Z,97.30
2022-10-09T06:05:40.491Z,97.30
2022-10-09T06:08:42.331Z,97.10
2022-10-09T06:11:44.245Z,97.60
2022-10-09T06:14:46.488Z,97.70
2022-10-09T06:17:48.317Z,97.80
2022-10-09T06:20:57.632Z,97.40
2022-10-09T06:24:00.547Z,97.30
2022-10-09T06:27:02.403Z,96.80
2022-10-09T06:30:04.480Z,96.90
2022-10-09T06:33:06.323Z,96.50
2022-10-09T06:36:13.019Z,96.20
2022-10-09T06:39:14.957Z,96.50
2022-10-09T06:42:17.548Z,95.90
2022-10-09T06:45:26.314Z,95.40
2022-10-09T06:48:32.058Z,95.20
2022-10-09T06:51:34.260Z,94.10
2022-10-09T06:54:36.173Z,93.70
2022-10-09T06:57:37.999Z,93.30
2022-10-09T07:00:39.804Z,93.00
2022-10-09T07:03:42.788Z,92.30
2022-10-09T07:06:45.286Z,91.90
2022-10-09T07:09:47.104Z,91.20
2022-10-09T07:12:49.123Z,91.60
2022-10-09T07:15:51.152Z,91.50
2022-10-09T07:18:53.144Z,90.80
2022-10-09T07:21:55.071Z,90.80
2022-10-09T07:24:56.943Z,90.40
2022-10-09T07:27:58.757Z,90.50
2022-10-09T07:31:03.704Z,90.80
2022-10-09T07:34:06.368Z,90.00
2022-10-09T07:37:08.220Z,88.80
2022-10-09T07:40:10.257Z,87.40
2022-10-09T07:43:12.193Z,86.50
2022-10-09T07:46:15.352Z,84.90
2022-10-09T07:49:17.268Z,83.80
2022-10-09T07:52:19.105Z,82.30
2022-10-09T07:55:20.941Z,79.70
2022-10-09T07:58:22.757Z,74.40
2022-10-09T08:01:25.112Z,72.80
2022-10-09T08:04:26.976Z,66.90
2022-10-09T08:07:32.718Z,48.30
2022-10-09T08:10:36.714Z,61.20
2022-10-09T08:13:38.523Z,55.20
2022-10-09T08:16:40.385Z,26.20
2022-10-09T08:19:42.272Z,39.70
2022-10-09T08:22:44.116Z,27.70
2022-10-09T08:25:47.616Z,38.80
2022-10-09T08:28:56.736Z,32.60
2022-10-09T08:31:58.543Z,21.70
2022-10-09T08:35:00.364Z,24.50
2022-10-09T08:38:02.216Z,26.20
2022-10-09T08:41:34.901Z,21.90
2022-10-09T08:44:41.601Z,13.50
2022-10-09T08:47:50.299Z,14.40
2022-10-09T08:50:53.661Z,13.70
2022-10-09T08:54:03.859Z,14.20
2022-10-09T08:57:14.948Z,11.80
2022-10-09T09:00:17.476Z,10.20
2022-10-09T09:03:46.735Z,15.00
2022-10-09T09:07:03.367Z,7.40
2022-10-09T09:10:41.506Z,7.20
2022-10-09T09:13:51.908Z,5.50
2022-10-09T09:17:29.976Z,9.90
2022-10-09T09:20:55.318Z,4.50
2022-10-09T09:23:57.128Z,3.10
2022-10-09T09:27:01.729Z,8.00
2022-10-09T09:30:12.764Z,7.50
2022-10-09T09:33:25.608Z,2.90
2022-10-09T09:36:31.437Z,3.20
2022-10-09T09:42:57.081Z,5.50
2022-10-09T09:45:59.986Z,4.20
2022-10-09T09:49:04.740Z,4.70
2022-10-09T09:52:09.371Z,2.50
2022-10-09T09:55:29.884Z,4.40
2022-10-09T09:58:36.240Z,1.00
2022-10-09T10:01:38.089Z,1.00
2022-10-09T10:05:06.076Z,2.40
2022-10-09T10:08:34.495Z,1.40
2022-10-09T10:11:36.427Z,2.90
2022-10-09T10:14:38.305Z,6.60
2022-10-09T10:17:40.125Z,6.50
2022-10-09T10:21:01.492Z,4.60
2022-10-09T10:24:04.632Z,5.80
2022-10-09T10:27:35.733Z,9.30
2022-10-09T10:30:37.616Z,11.00
2022-10-09T10:33:39.481Z,11.80
2022-10-09T10:36:41.434Z,12.80
2022-10-09T10:39:50.425Z,13.40
2022-10-09T10:43:12.938Z,13.10
2022-10-09T10:46:23.993Z,13.50
2022-10-09T10:49:28.386Z,13.70
2022-10-09T10:52:36.844Z,15.00
2022-10-09T10:55:54.632Z,15.60
2022-10-09T10:59:21.488Z,14.20
2022-10-09T11:02:33.115Z,14.70
2022-10-09T11:05:46.821Z,14.20
2022-10-09T11:08:54.588Z,14.80
2022-10-09T11:12:01.872Z,15.50
2022-10-09T11:15:37.746Z,13.30
2022-10-09T11:18:58.552Z,13.50
2022-10-09T11:22:03.399Z,14.30
2022-10-09T11:25:13.808Z,15.40
2022-10-09T11:28:20.928Z,14.50
2022-10-09T11:31:32.900Z,13.60
2022-10-09T11:34:41.489Z,13.30
2022-10-09T11:37:43.875Z,13.40
2022-10-09T11:40:45.677Z,13.70
2022-10-09T11:44:06.668Z,12.90
2022-10-09T11:47:15.539Z,13.30
2022-10-09T11:50:22.092Z,13.30
2022-10-09T11:53:24.868Z,11.70
2022-10-09T11:56:32.040Z,11.70
2022-10-09T11:59:36.469Z,11.70
2022-10-09T12:02:38.550Z,12.60
2022-10-09T12:05:43.926Z,13.00
2022-10-09T12:08:58.891Z,12.90
2022-10-09T12:12:07.771Z,13.30
2022-10-09T12:15:25.142Z,8.20
2022-10-09T12:18:40.709Z,9.90
2022-10-09T12:22:05.804Z,11.50
2022-10-09T12:25:32.494Z,10.10
2022-10-09T12:28:38.702Z,9.90
2022-10-09T12:31:40.573Z,7.50
2022-10-09T12:34:45.646Z,9.10
2022-10-09T12:37:47.477Z,8.10
2022-10-09T12:40:49.350Z,7.90
2022-10-09T12:43:52.363Z,8.20
2022-10-09T12:46:54.258Z,8.70
2022-10-09T12:50:12.561Z,9.10
2022-10-09T12:53:32.746Z,6.30
2022-10-09T12:56:38.094Z,9.20
2022-10-09T12:59:40.011Z,6.70
2022-10-09T13:02:41.925Z,8.60
2022-10-09T13:05:43.800Z,8.00
2022-10-09T13:08:45.750Z,8.60
2022-10-09T13:11:53.204Z,8.50
2022-10-09T13:15:05.748Z,8.30
2022-10-09T13:18:28.441Z,8.40
2022-10-09T13:21:35.094Z,9.50
2022-10-09T13:24:37.522Z,8.50
2022-10-09T13:27:39.371Z,7.20
2022-10-09T13:30:41.369Z,7.50
2022-10-09T13:33:43.203Z,8.90
2022-10-09T13:36:45.129Z,8.60
2022-10-09T13:39:47.209Z,9.40
2022-10-09T13:42:54.856Z,7.60
2022-10-09T13:45:57.080Z,9.00
2022-10-09T13:48:58.960Z,9.00
2022-10-09T13:52:00.766Z,8.80
2022-10-09T13:55:02.566Z,9.00
2022-10-09T13:58:04.443Z,9.70
2022-10-09T14:01:06.306Z,9.40
2022-10-09T14:04:08.168Z,8.80
2022-10-09T14:07:10.044Z,10.20
2022-10-09T14:10:11.850Z,8.70
2022-10-09T14:13:14.594Z,8.40
2022-10-09T14:16:16.583Z,9.40
2022-10-09T14:19:18.337Z,9.20
2022-10-09T14:22:20.201Z,8.50
2022-10-09T14:25:22.042Z,11.40
2022-10-09T14:28:23.918Z,9.00
2022-10-09T14:31:25.703Z,8.70
2022-10-09T14:34:27.571Z,8.10
2022-10-09T14:37:41.057Z,9.50
2022-10-09T14:40:44.360Z,9.70
2022-10-09T14:43:46.457Z,9.50
2022-10-09T14:46:48.312Z,9.20
2022-10-09T14:49:50.155Z,9.60
2022-10-09T14:52:52.367Z,10.20
2022-10-09T14:55:54.364Z,11.30
2022-10-09T14:58:57.924Z,10.10
2022-10-09T15:01:59.833Z,9.90
2022-10-09T15:05:01.706Z,12.00
2022-10-09T15:08:03.547Z,11.80
2022-10-09T15:11:05.627Z,11.40
2022-10-09T15:14:07.931Z,9.90
2022-10-09T15:17:09.809Z,11.20
2022-10-09T15:20:11.608Z,11.20
2022-10-09T15:23:13.468Z,11.10
2022-10-09T15:26:15.408Z,11.10
2022-10-09T15:29:17.220Z,11.10
2022-10-09T15:32:19.064Z,11.30
2022-10-09T15:35:20.934Z,11.40
2022-10-09T15:38:24.048Z,11.40
2022-10-09T15:41:27.755Z,11.30
2022-10-09T15:44:29.648Z,10.80
2022-10-09T15:47:50.116Z,11.40
2022-10-09T15:50:53.783Z,9.10
2022-10-09T15:53:56.233Z,10.60
2022-10-09T15:56:58.155Z,9.90
2022-10-09T16:00:00.096Z,10.40
2022-10-09T16:03:01.900Z,10.10
2022-10-09T16:06:05.525Z,10.00
2022-10-09T16:09:07.427Z,10.50
2022-10-09T16:12:09.241Z,10.30
2022-10-09T16:15:11.432Z,10.20
2022-10-09T16:18:13.533Z,10.00
2022-10-09T16:21:20.690Z,9.90
2022-10-09T16:24:22.499Z,10.30
2022-10-09T16:27:24.467Z,9.70
2022-10-09T16:30:26.441Z,10.40
2022-10-09T16:33:28.264Z,10.80
2022-10-09T16:36:30.159Z,11.90
2022-10-09T16:39:32.409Z,13.10
2022-10-09T16:42:34.244Z,13.30
2022-10-09T16:45:36.103Z,13.20
2022-10-09T16:48:37.985Z,13.80
2022-10-09T16:51:39.831Z,14.70
2022-10-09T16:54:42.179Z,15.10
2022-10-09T16:57:44.029Z,14.60
2022-10-09T17:00:45.833Z,16.10
2022-10-09T17:03:47.724Z,16.00
2022-10-09T17:06:49.559Z,16.70
2022-10-09T17:09:52.289Z,16.40
2022-10-09T17:12:54.150Z,17.70
2022-10-09T17:15:55.968Z,18.10
2022-10-09T17:18:58.004Z,18.00
2022-10-09T17:22:00.794Z,18.40
2022-10-09T17:25:03.108Z,19.10
2022-10-09T17:28:07.977Z,20.40
2022-10-09T17:31:11.703Z,21.90
2022-10-09T17:34:13.573Z,21.40
2022-10-09T17:37:15.408Z,22.80
2022-10-09T17:40:17.339Z,23.00
2022-10-09T17:43:19.384Z,25.40
2022-10-09T17:46:21.348Z,25.00
2022-10-09T17:49:23.143Z,29.10
2022-10-09T17:52:24.955Z,27.10
2022-10-09T17:55:27.062Z,30.80
2022-10-09T17:58:28.875Z,29.90
2022-10-09T18:01:30.911Z,31.90
2022-10-09T18:04:32.814Z,32.00
2022-10-09T18:07:34.767Z,30.80
2022-10-09T18:10:37.277Z,35.50
2022-10-09T18:13:39.108Z,36.50
2022-10-09T18:16:40.943Z,43.20
2022-10-09T18:19:42.815Z,37.90
2022-10-09T18:22:44.644Z,37.80
2022-10-09T18:25:46.483Z,39.70
2022-10-09T18:28:48.763Z,39.80
2022-10-09T18:31:55.476Z,40.60
2022-10-09T18:34:57.316Z,43.60
2022-10-09T18:37:59.212Z,44.60
2022-10-09T18:41:02.024Z,44.80
2022-10-09T18:44:03.923Z,46.30
2022-10-09T18:47:06.016Z,53.10
2022-10-09T18:50:09.296Z,45.70
2022-10-09T18:53:11.239Z,44.80
2022-10-09T18:56:13.166Z,45.00
2022-10-09T18:59:16.467Z,46.10
2022-10-09T19:02:19.464Z,53.60
2022-10-09T19:05:21.347Z,51.10
2022-10-09T19:08:23.160Z,49.00
2022-10-09T19:11:25.075Z,51.60
2022-10-09T19:14:26.907Z,51.00
2022-10-09T19:17:28.776Z,50.60
2022-10-09T19:20:31.508Z,52.10
2022-10-09T19:23:33.364Z,51.40
2022-10-09T19:26:35.449Z,52.70
2022-10-09T19:29:37.451Z,55.20
2022-10-09T19:32:39.254Z,56.50
2022-10-09T19:35:48.515Z,59.60
2022-10-09T19:38:50.650Z,63.00
2022-10-09T19:41:52.597Z,62.10
2022-10-09T19:44:54.416Z,62.20
2022-10-09T19:47:56.466Z,62.90
2022-10-09T19:50:59.733Z,63.30
2022-10-09T19:54:02.336Z,62.20
2022-10-09T19:57:04.116Z,60.10
2022-10-09T20:00:09.669Z,69.50
2022-10-09T20:03:11.476Z,62.00
2022-10-09T20:06:13.424Z,62.80
2022-10-09T20:09:15.541Z,64.50
2022-10-09T20:12:19.259Z,66.50
2022-10-09T20:15:22.367Z,66.20
2022-10-09T20:18:24.315Z,68.50
2022-10-09T20:21:26.327Z,68.90
2022-10-09T20:24:28.156Z,68.50
2022-10-09T20:27:30.632Z,70.40
2022-10-09T20:30:32.466Z,73.80
2022-10-09T20:33:37.705Z,72.40
2022-10-09T20:36:39.553Z,75.50
2022-10-09T20:39:41.361Z,73.90
2022-10-09T20:42:43.220Z,79.50
2022-10-09T20:45:45.068Z,78.70
2022-10-09T20:48:47.128Z,79.30
2022-10-09T20:51:48.939Z,75.40
2022-10-09T20:54:50.902Z,76.10
2022-10-09T20:57:54.927Z,77.20
2022-10-09T21:00:57.342Z,77.30
2022-10-09T21:03:59.484Z,79.80
2022-10-09T21:07:01.333Z,77.30
2022-10-09T21:10:03.438Z,76.90
2022-10-09T21:13:05.316Z,83.90
2022-10-09T21:16:08.401Z,82.40
2022-10-09T21:19:10.310Z,79.10
2022-10-09T21:22:12.201Z,79.50
2022-10-09T21:25:14.083Z,81.80
2022-10-09T21:28:16.436Z,85.50
2022-10-09T21:31:23.486Z,84.30
2022-10-09T21:34:25.324Z,88.10
2022-10-09T21:37:27.221Z,85.50
2022-10-09T21:40:29.389Z,84.10
2022-10-09T21:43:31.222Z,84.40
2022-10-09T21:46:33.640Z,85.60
2022-10-09T21:49:35.565Z,86.50
2022-10-09T21:52:37.405Z,85.50
2022-10-09T21:55:39.436Z,86.60
2022-10-09T21:58:45.462Z,85.80
2022-10-09T22:01:49.972Z,85.60
2022-10-09T22:04:51.771Z,81.60
2022-10-09T22:07:53.608Z,80.00
2022-10-09T22:10:55.437Z,79.50
2022-10-09T22:13:57.315Z,81.60
2022-10-09T22:16:59.217Z,85.40
2022-10-09T22:20:01.014Z,82.10
2022-10-09T22:23:02.843Z,83.40
2022-10-09T22:26:10.089Z,84.30
2022-10-09T22:29:11.952Z,85.70
2022-10-09T22:32:13.812Z,84.30
2022-10-09T22:35:15.666Z,85.60
2022-10-09T22:38:17.475Z,84.40
2022-10-09T22:41:20.063Z,81.60
2022-10-09T22:44:21.855Z,85.70
2022-10-09T22:47:23.684Z,88.70
2022-10-09T22:50:25.544Z,84.90
2022-10-09T22:53:27.375Z,84.40
2022-10-09T22:56:34.458Z,84.20
2022-10-09T22:59:36.298Z,86.40
2022-10-09T23:02:38.138Z,82.70
2022-10-09T23:05:40.005Z,82.70
2022-10-09T23:08:42.721Z,83.80
2022-10-09T23:11:44.623Z,81.90
2022-10-09T23:14:46.597Z,83.50
2022-10-09T23:17:48.455Z,84.60
2022-10-09T23:20:50.241Z,84.60
2022-10-09T23:23:53.131Z,83.30
2022-10-09T23:26:54.996Z,86.40
2022-10-09T23:29:56.818Z,82.00
2022-10-09T23:32:58.679Z,83.20
2022-10-09T23:36:02.598Z,85.20
2022-10-09T23:39:05.075Z,85.60
2022-10-09T23:42:06.914Z,84.10
2022-10-09T23:45:09.205Z,82.60
2022-10-09T23:48:11.075Z,84.50
2022-10-09T23:51:14.102Z,82.40
2022-10-09T23:54:15.978Z,83.30
2022-10-09T23:57:17.757Z,84.40
